sensor_id;sensor_type;location;lat;lon;timestamp;P1;durP1;ratioP1;P2;durP2;ratioP2
30888;SDS011;51092;50.874;7.024;2022-12-07T00:00:27;83.57;;;46.83;;
30888;SDS011;51092;50.874;7.024;2022-12-07T00:01:30;93.97;;;54.95;;
30888;SDS011;51092;50.874;7.024;2022-12-07T00:02:33;94.55;;;56.42;;
30888;SDS011;51092;50.874;7.024;2022-12-07T00:03:35;87.53;;;52.45;;
30888;SDS011;51092;50.874;7.024;2022-12-07T00:04:39;89.60;;;53.47;;
30888;SDS011;51092;50.874;7.024;2022-12-07T00:05:41;90.65;;;53.00;;
30888;SDS011;51092;50.874;7.024;2022-12-07T00:06:44;106.45;;;57.25;;
30888;SDS011;51092;50.874;7.024;2022-12-07T00:07:46;84.47;;;50.70;;
30888;SDS011;51092;50.874;7.024;2022-12-07T00:08:50;73.15;;;46.28;;
30888;SDS011;51092;50.874;7.024;2022-12-07T00:09:52;74.07;;;49.92;;
30888;SDS011;51092;50.874;7.024;2022-12-07T00:10:54;79.95;;;47.60;;
30888;SDS011;51092;50.874;7.024;2022-12-07T00:11:56;77.93;;;48.05;;
30888;SDS011;51092;50.874;7.024;2022-12-07T00:12:58;83.57;;;50.47;;
30888;SDS011;51092;50.874;7.024;2022-12-07T00:13:59;85.60;;;52.75;;
30888;SDS011;51092;50.874;7.024;2022-12-07T00:15:04;80.30;;;49.67;;
30888;SDS011;51092;50.874;7.024;2022-12-07T00:16:06;80.50;;;49.88;;
30888;SDS011;51092;50.874;7.024;2022-12-07T00:17:09;84.75;;;50.75;;
30888;SDS011;51092;50.874;7.024;2022-12-07T00:18:10;79.80;;;48.03;;
30888;SDS011;51092;50.874;7.024;2022-12-07T00:19:13;99.20;;;56.83;;
30888;SDS011;51092;50.874;7.024;2022-12-07T00:20:16;89.90;;;53.58;;
30888;SDS011;51092;50.874;7.024;2022-12-07T00:21:19;75.18;;;47.85;;
30888;SDS011;51092;50.874;7.024;2022-12-07T00:22:23;86.65;;;52.40;;
30888;SDS011;51092;50.874;7.024;2022-12-07T00:23:24;79.70;;;51.05;;
30888;SDS011;51092;50.874;7.024;2022-12-07T00:24:29;98.35;;;55.58;;
30888;SDS011;51092;50.874;7.024;2022-12-07T00:25:30;76.28;;;49.47;;
30888;SDS011;51092;50.874;7.024;2022-12-07T00:26:33;96.32;;;53.53;;
30888;SDS011;51092;50.874;7.024;2022-12-07T00:27:36;91.60;;;55.47;;
30888;SDS011;51092;50.874;7.024;2022-12-07T00:28:45;82.63;;;49.63;;
30888;SDS011;51092;50.874;7.024;2022-12-07T00:29:47;77.30;;;47.67;;
30888;SDS011;51092;50.874;7.024;2022-12-07T00:30:50;89.07;;;52.38;;
30888;SDS011;51092;50.874;7.024;2022-12-07T00:31:51;75.72;;;47.35;;
30888;SDS011;51092;50.874;7.024;2022-12-07T00:32:53;86.20;;;49.90;;
30888;SDS011;51092;50.874;7.024;2022-12-07T00:33:54;66.80;;;48.55;;
30888;SDS011;51092;50.874;7.024;2022-12-07T00:34:56;68.13;;;47.33;;
30888;SDS011;51092;50.874;7.024;2022-12-07T00:35:57;88.95;;;54.67;;
30888;SDS011;51092;50.874;7.024;2022-12-07T00:37:01;76.03;;;48.05;;
30888;SDS011;51092;50.874;7.024;2022-12-07T00:38:02;88.80;;;52.35;;
30888;SDS011;51092;50.874;7.024;2022-12-07T00:39:05;76.28;;;48.83;;
30888;SDS011;51092;50.874;7.024;2022-12-07T00:40:08;77.72;;;50.08;;
30888;SDS011;51092;50.874;7.024;2022-12-07T00:41:12;79.30;;;50.72;;
30888;SDS011;51092;50.874;7.024;2022-12-07T00:42:15;91.47;;;53.90;;
30888;SDS011;51092;50.874;7.024;2022-12-07T00:43:17;96.38;;;56.90;;
30888;SDS011;51092;50.874;7.024;2022-12-07T00:44:18;90.43;;;53.67;;
30888;SDS011;51092;50.874;7.024;2022-12-07T00:45:21;81.07;;;50.85;;
30888;SDS011;51092;50.874;7.024;2022-12-07T00:46:23;86.38;;;53.38;;
30888;SDS011;51092;50.874;7.024;2022-12-07T00:47:26;75.90;;;47.58;;
30888;SDS011;51092;50.874;7.024;2022-12-07T00:48:28;80.00;;;50.30;;
30888;SDS011;51092;50.874;7.024;2022-12-07T00:49:30;79.63;;;49.10;;
30888;SDS011;51092;50.874;7.024;2022-12-07T00:50:32;85.63;;;54.60;;
30888;SDS011;51092;50.874;7.024;2022-12-07T00:51:34;83.03;;;50.35;;
30888;SDS011;51092;50.874;7.024;2022-12-07T00:52:36;79.95;;;52.45;;
30888;SDS011;51092;50.874;7.024;2022-12-07T00:53:38;87.97;;;55.60;;
30888;SDS011;51092;50.874;7.024;2022-12-07T00:54:40;84.63;;;54.50;;
30888;SDS011;51092;50.874;7.024;2022-12-07T00:55:44;84.28;;;50.90;;
30888;SDS011;51092;50.874;7.024;2022-12-07T00:56:48;85.60;;;55.60;;
30888;SDS011;51092;50.874;7.024;2022-12-07T00:57:53;89.88;;;52.85;;
30888;SDS011;51092;50.874;7.024;2022-12-07T00:58:55;94.57;;;56.92;;
30888;SDS011;51092;50.874;7.024;2022-12-07T01:00:00;73.68;;;47.97;;
30888;SDS011;51092;50.874;7.024;2022-12-07T01:01:06;79.75;;;48.25;;
30888;SDS011;51092;50.874;7.024;2022-12-07T01:02:10;84.38;;;53.13;;
30888;SDS011;51092;50.874;7.024;2022-12-07T01:03:13;69.70;;;47.65;;
30888;SDS011;51092;50.874;7.024;2022-12-07T01:04:15;93.05;;;53.58;;
30888;SDS011;51092;50.874;7.024;2022-12-07T01:05:18;68.47;;;47.40;;
30888;SDS011;51092;50.874;7.024;2022-12-07T01:06:20;93.18;;;55.08;;
30888;SDS011;51092;50.874;7.024;2022-12-07T01:07:23;91.53;;;52.83;;
30888;SDS011;51092;50.874;7.024;2022-12-07T01:08:25;71.85;;;45.53;;
30888;SDS011;51092;50.874;7.024;2022-12-07T01:09:29;75.85;;;49.90;;
30888;SDS011;51092;50.874;7.024;2022-12-07T01:10:30;85.50;;;51.42;;
30888;SDS011;51092;50.874;7.024;2022-12-07T01:11:35;82.68;;;53.42;;
30888;SDS011;51092;50.874;7.024;2022-12-07T01:12:37;69.50;;;46.53;;
30888;SDS011;51092;50.874;7.024;2022-12-07T01:13:39;64.63;;;45.20;;
30888;SDS011;51092;50.874;7.024;2022-12-07T01:14:42;68.25;;;45.28;;
30888;SDS011;51092;50.874;7.024;2022-12-07T01:15:43;61.75;;;42.63;;
30888;SDS011;51092;50.874;7.024;2022-12-07T01:16:46;67.40;;;45.35;;
30888;SDS011;51092;50.874;7.024;2022-12-07T01:17:48;61.88;;;43.60;;
30888;SDS011;51092;50.874;7.024;2022-12-07T01:18:51;57.65;;;43.58;;
30888;SDS011;51092;50.874;7.024;2022-12-07T01:19:54;59.80;;;43.00;;
30888;SDS011;51092;50.874;7.024;2022-12-07T01:20:57;57.65;;;42.92;;
30888;SDS011;51092;50.874;7.024;2022-12-07T01:22:00;57.05;;;42.28;;
30888;SDS011;51092;50.874;7.024;2022-12-07T01:23:02;57.10;;;44.95;;
30888;SDS011;51092;50.874;7.024;2022-12-07T01:24:05;56.22;;;42.40;;
30888;SDS011;51092;50.874;7.024;2022-12-07T01:25:09;59.25;;;41.10;;
30888;SDS011;51092;50.874;7.024;2022-12-07T01:26:13;61.25;;;43.85;;
30888;SDS011;51092;50.874;7.024;2022-12-07T01:27:18;59.45;;;41.60;;
30888;SDS011;51092;50.874;7.024;2022-12-07T01:28:19;63.17;;;44.10;;
30888;SDS011;51092;50.874;7.024;2022-12-07T01:29:22;57.00;;;42.45;;
30888;SDS011;51092;50.874;7.024;2022-12-07T01:30:24;61.80;;;44.60;;
30888;SDS011;51092;50.874;7.024;2022-12-07T01:31:26;59.70;;;43.08;;
30888;SDS011;51092;50.874;7.024;2022-12-07T01:32:29;59.55;;;42.58;;
30888;SDS011;51092;50.874;7.024;2022-12-07T01:33:32;55.80;;;41.20;;
30888;SDS011;51092;50.874;7.024;2022-12-07T01:34:37;56.33;;;42.13;;
30888;SDS011;51092;50.874;7.024;2022-12-07T01:35:39;63.42;;;45.30;;
30888;SDS011;51092;50.874;7.024;2022-12-07T01:36:41;59.60;;;44.58;;
30888;SDS011;51092;50.874;7.024;2022-12-07T01:37:43;57.63;;;43.58;;
30888;SDS011;51092;50.874;7.024;2022-12-07T01:38:46;59.55;;;42.80;;
30888;SDS011;51092;50.874;7.024;2022-12-07T01:39:49;59.72;;;43.25;;
30888;SDS011;51092;50.874;7.024;2022-12-07T01:40:55;63.00;;;43.15;;
30888;SDS011;51092;50.874;7.024;2022-12-07T01:41:57;56.03;;;42.35;;
30888;SDS011;51092;50.874;7.024;2022-12-07T01:43:01;56.35;;;42.95;;
30888;SDS011;51092;50.874;7.024;2022-12-07T01:44:17;64.43;;;45.35;;
30888;SDS011;51092;50.874;7.024;2022-12-07T01:45:33;54.33;;;38.95;;
30888;SDS011;51092;50.874;7.024;2022-12-07T01:46:40;61.00;;;42.47;;
30888;SDS011;51092;50.874;7.024;2022-12-07T01:47:45;63.00;;;44.08;;
30888;SDS011;51092;50.874;7.024;2022-12-07T01:48:51;58.45;;;43.22;;
30888;SDS011;51092;50.874;7.024;2022-12-07T01:49:54;69.53;;;46.13;;
30888;SDS011;51092;50.874;7.024;2022-12-07T01:50:56;61.00;;;46.65;;
30888;SDS011;51092;50.874;7.024;2022-12-07T01:52:04;63.38;;;42.53;;
30888;SDS011;51092;50.874;7.024;2022-12-07T01:53:15;59.85;;;44.55;;
30888;SDS011;51092;50.874;7.024;2022-12-07T01:54:18;57.13;;;43.38;;
30888;SDS011;51092;50.874;7.024;2022-12-07T01:55:22;56.00;;;43.13;;
30888;SDS011;51092;50.874;7.024;2022-12-07T01:56:25;60.78;;;44.38;;
30888;SDS011;51092;50.874;7.024;2022-12-07T01:57:30;58.58;;;43.10;;
30888;SDS011;51092;50.874;7.024;2022-12-07T01:58:35;62.33;;;44.40;;
30888;SDS011;51092;50.874;7.024;2022-12-07T01:59:38;60.05;;;43.30;;
30888;SDS011;51092;50.874;7.024;2022-12-07T02:00:40;57.38;;;39.78;;
30888;SDS011;51092;50.874;7.024;2022-12-07T02:01:43;60.63;;;42.63;;
30888;SDS011;51092;50.874;7.024;2022-12-07T02:02:46;64.07;;;44.33;;
30888;SDS011;51092;50.874;7.024;2022-12-07T02:03:53;65.70;;;45.40;;
30888;SDS011;51092;50.874;7.024;2022-12-07T02:04:54;61.72;;;44.20;;
30888;SDS011;51092;50.874;7.024;2022-12-07T02:05:58;60.97;;;42.65;;
30888;SDS011;51092;50.874;7.024;2022-12-07T02:07:01;67.60;;;44.35;;
30888;SDS011;51092;50.874;7.024;2022-12-07T02:08:06;70.05;;;46.20;;
30888;SDS011;51092;50.874;7.024;2022-12-07T02:09:08;60.75;;;46.58;;
30888;SDS011;51092;50.874;7.024;2022-12-07T02:10:14;62.13;;;45.88;;
30888;SDS011;51092;50.874;7.024;2022-12-07T02:11:16;57.33;;;42.20;;
30888;SDS011;51092;50.874;7.024;2022-12-07T02:12:18;65.50;;;45.60;;
30888;SDS011;51092;50.874;7.024;2022-12-07T02:13:21;57.70;;;43.22;;
30888;SDS011;51092;50.874;7.024;2022-12-07T02:14:28;53.58;;;41.95;;
30888;SDS011;51092;50.874;7.024;2022-12-07T02:15:37;55.50;;;42.67;;
30888;SDS011;51092;50.874;7.024;2022-12-07T02:16:47;61.80;;;44.60;;
30888;SDS011;51092;50.874;7.024;2022-12-07T02:18:00;57.80;;;42.35;;
30888;SDS011;51092;50.874;7.024;2022-12-07T02:19:14;61.75;;;43.42;;
30888;SDS011;51092;50.874;7.024;2022-12-07T02:20:40;72.10;;;46.35;;
30888;SDS011;51092;50.874;7.024;2022-12-07T02:21:47;79.50;;;51.78;;
30888;SDS011;51092;50.874;7.024;2022-12-07T02:23:16;76.35;;;51.28;;
30888;SDS011;51092;50.874;7.024;2022-12-07T02:24:45;83.55;;;54.78;;
30888;SDS011;51092;50.874;7.024;2022-12-07T02:26:01;73.22;;;49.63;;
30888;SDS011;51092;50.874;7.024;2022-12-07T02:28:53;90.05;;;55.95;;
30888;SDS011;51092;50.874;7.024;2022-12-07T02:30:05;90.15;;;54.50;;
30888;SDS011;51092;50.874;7.024;2022-12-07T02:31:12;92.00;;;57.90;;
30888;SDS011;51092;50.874;7.024;2022-12-07T02:32:20;98.60;;;59.92;;
30888;SDS011;51092;50.874;7.024;2022-12-07T02:33:28;116.03;;;65.03;;
30888;SDS011;51092;50.874;7.024;2022-12-07T02:34:36;99.03;;;58.20;;
30888;SDS011;51092;50.874;7.024;2022-12-07T02:35:46;82.05;;;55.78;;
30888;SDS011;51092;50.874;7.024;2022-12-07T02:36:57;88.72;;;55.65;;
30888;SDS011;51092;50.874;7.024;2022-12-07T02:38:08;112.18;;;65.43;;
30888;SDS011;51092;50.874;7.024;2022-12-07T02:39:17;100.05;;;61.15;;
30888;SDS011;51092;50.874;7.024;2022-12-07T02:40:25;88.80;;;54.95;;
30888;SDS011;51092;50.874;7.024;2022-12-07T02:41:31;95.40;;;61.78;;
30888;SDS011;51092;50.874;7.024;2022-12-07T02:42:37;103.75;;;59.00;;
30888;SDS011;51092;50.874;7.024;2022-12-07T02:43:43;98.07;;;60.80;;
30888;SDS011;51092;50.874;7.024;2022-12-07T02:44:50;99.55;;;62.55;;
30888;SDS011;51092;50.874;7.024;2022-12-07T02:45:53;105.05;;;61.17;;
30888;SDS011;51092;50.874;7.024;2022-12-07T02:47:01;114.13;;;63.95;;
30888;SDS011;51092;50.874;7.024;2022-12-07T02:48:05;103.45;;;60.22;;
30888;SDS011;51092;50.874;7.024;2022-12-07T02:49:10;99.25;;;62.58;;
30888;SDS011;51092;50.874;7.024;2022-12-07T02:50:12;106.28;;;60.10;;
30888;SDS011;51092;50.874;7.024;2022-12-07T02:51:16;117.57;;;66.47;;
30888;SDS011;51092;50.874;7.024;2022-12-07T02:52:19;111.30;;;64.38;;
30888;SDS011;51092;50.874;7.024;2022-12-07T02:53:31;121.03;;;64.68;;
30888;SDS011;51092;50.874;7.024;2022-12-07T02:54:35;118.07;;;66.25;;
30888;SDS011;51092;50.874;7.024;2022-12-07T02:55:37;135.05;;;67.95;;
30888;SDS011;51092;50.874;7.024;2022-12-07T02:56:43;100.88;;;62.30;;
30888;SDS011;51092;50.874;7.024;2022-12-07T02:57:53;101.72;;;60.05;;
30888;SDS011;51092;50.874;7.024;2022-12-07T02:59:06;88.18;;;57.45;;
30888;SDS011;51092;50.874;7.024;2022-12-07T03:00:19;99.88;;;59.75;;
30888;SDS011;51092;50.874;7.024;2022-12-07T03:01:25;117.00;;;65.10;;
30888;SDS011;51092;50.874;7.024;2022-12-07T03:02:38;101.78;;;59.33;;
30888;SDS011;51092;50.874;7.024;2022-12-07T03:03:50;117.35;;;65.50;;
30888;SDS011;51092;50.874;7.024;2022-12-07T03:04:59;101.47;;;59.90;;
30888;SDS011;51092;50.874;7.024;2022-12-07T03:06:12;88.15;;;58.42;;
30888;SDS011;51092;50.874;7.024;2022-12-07T03:07:21;105.53;;;60.75;;
30888;SDS011;51092;50.874;7.024;2022-12-07T03:08:30;91.00;;;58.35;;
30888;SDS011;51092;50.874;7.024;2022-12-07T03:09:41;105.93;;;59.28;;
30888;SDS011;51092;50.874;7.024;2022-12-07T03:10:50;89.70;;;50.47;;
30888;SDS011;51092;50.874;7.024;2022-12-07T03:11:59;104.35;;;60.58;;
30888;SDS011;51092;50.874;7.024;2022-12-07T03:13:09;95.45;;;59.03;;
30888;SDS011;51092;50.874;7.024;2022-12-07T03:14:17;108.25;;;60.03;;
30888;SDS011;51092;50.874;7.024;2022-12-07T03:15:27;99.15;;;59.10;;
30888;SDS011;51092;50.874;7.024;2022-12-07T03:16:33;110.97;;;63.70;;
30888;SDS011;51092;50.874;7.024;2022-12-07T03:17:38;107.63;;;62.75;;
30888;SDS011;51092;50.874;7.024;2022-12-07T03:18:44;112.88;;;62.97;;
30888;SDS011;51092;50.874;7.024;2022-12-07T03:19:51;91.05;;;56.10;;
30888;SDS011;51092;50.874;7.024;2022-12-07T03:20:55;109.20;;;63.40;;
30888;SDS011;51092;50.874;7.024;2022-12-07T03:22:01;118.80;;;66.30;;
30888;SDS011;51092;50.874;7.024;2022-12-07T03:23:06;108.10;;;60.67;;
30888;SDS011;51092;50.874;7.024;2022-12-07T03:24:12;97.25;;;58.03;;
30888;SDS011;51092;50.874;7.024;2022-12-07T03:25:16;113.72;;;65.97;;
30888;SDS011;51092;50.874;7.024;2022-12-07T03:26:20;89.30;;;58.00;;
30888;SDS011;51092;50.874;7.024;2022-12-07T03:27:25;97.60;;;60.50;;
30888;SDS011;51092;50.874;7.024;2022-12-07T03:28:35;101.82;;;62.80;;
30888;SDS011;51092;50.874;7.024;2022-12-07T03:29:43;88.63;;;58.38;;
30888;SDS011;51092;50.874;7.024;2022-12-07T03:30:53;97.55;;;58.78;;
30888;SDS011;51092;50.874;7.024;2022-12-07T03:32:00;119.70;;;66.10;;
30888;SDS011;51092;50.874;7.024;2022-12-07T03:33:07;110.30;;;61.95;;
30888;SDS011;51092;50.874;7.024;2022-12-07T03:34:12;109.03;;;65.75;;
30888;SDS011;51092;50.874;7.024;2022-12-07T03:35:18;115.60;;;64.68;;
30888;SDS011;51092;50.874;7.024;2022-12-07T03:36:23;110.90;;;64.00;;
30888;SDS011;51092;50.874;7.024;2022-12-07T03:37:32;106.25;;;62.67;;
30888;SDS011;51092;50.874;7.024;2022-12-07T03:38:36;99.65;;;60.53;;
30888;SDS011;51092;50.874;7.024;2022-12-07T03:39:45;95.65;;;57.38;;
30888;SDS011;51092;50.874;7.024;2022-12-07T03:40:52;122.85;;;64.38;;
30888;SDS011;51092;50.874;7.024;2022-12-07T03:42:00;99.18;;;61.60;;
30888;SDS011;51092;50.874;7.024;2022-12-07T03:43:06;97.45;;;58.80;;
30888;SDS011;51092;50.874;7.024;2022-12-07T03:44:08;98.30;;;59.35;;
30888;SDS011;51092;50.874;7.024;2022-12-07T03:45:11;120.60;;;63.42;;
30888;SDS011;51092;50.874;7.024;2022-12-07T03:46:17;98.38;;;60.30;;
30888;SDS011;51092;50.874;7.024;2022-12-07T03:47:25;82.22;;;54.13;;
30888;SDS011;51092;50.874;7.024;2022-12-07T03:48:32;110.07;;;61.97;;
30888;SDS011;51092;50.874;7.024;2022-12-07T03:49:40;99.63;;;60.97;;
30888;SDS011;51092;50.874;7.024;2022-12-07T03:50:46;93.05;;;56.80;;
30888;SDS011;51092;50.874;7.024;2022-12-07T03:51:54;101.90;;;60.00;;
30888;SDS011;51092;50.874;7.024;2022-12-07T03:53:02;97.43;;;58.70;;
30888;SDS011;51092;50.874;7.024;2022-12-07T03:54:10;96.10;;;59.63;;
30888;SDS011;51092;50.874;7.024;2022-12-07T03:55:18;101.70;;;58.95;;
30888;SDS011;51092;50.874;7.024;2022-12-07T03:56:25;88.25;;;57.80;;
30888;SDS011;51092;50.874;7.024;2022-12-07T03:57:28;95.35;;;57.45;;
30888;SDS011;51092;50.874;7.024;2022-12-07T03:58:32;93.10;;;60.85;;
30888;SDS011;51092;50.874;7.024;2022-12-07T03:59:35;81.65;;;53.20;;
30888;SDS011;51092;50.874;7.024;2022-12-07T04:00:39;91.80;;;58.65;;
30888;SDS011;51092;50.874;7.024;2022-12-07T04:01:43;113.43;;;61.00;;
30888;SDS011;51092;50.874;7.024;2022-12-07T04:02:46;112.93;;;61.95;;
30888;SDS011;51092;50.874;7.024;2022-12-07T04:03:47;91.80;;;56.33;;
30888;SDS011;51092;50.874;7.024;2022-12-07T04:04:49;134.20;;;66.32;;
30888;SDS011;51092;50.874;7.024;2022-12-07T04:05:50;108.13;;;62.80;;
30888;SDS011;51092;50.874;7.024;2022-12-07T04:06:53;100.72;;;59.85;;
30888;SDS011;51092;50.874;7.024;2022-12-07T04:07:56;78.72;;;52.25;;
30888;SDS011;51092;50.874;7.024;2022-12-07T04:08:57;87.22;;;53.67;;
30888;SDS011;51092;50.874;7.024;2022-12-07T04:10:00;83.57;;;51.97;;
30888;SDS011;51092;50.874;7.024;2022-12-07T04:11:01;87.72;;;52.78;;
30888;SDS011;51092;50.874;7.024;2022-12-07T04:12:04;83.45;;;53.45;;
30888;SDS011;51092;50.874;7.024;2022-12-07T04:13:07;90.43;;;54.05;;
30888;SDS011;51092;50.874;7.024;2022-12-07T04:14:09;105.85;;;60.30;;
30888;SDS011;51092;50.874;7.024;2022-12-07T04:15:20;91.00;;;56.40;;
30888;SDS011;51092;50.874;7.024;2022-12-07T04:16:22;92.72;;;55.08;;
30888;SDS011;51092;50.874;7.024;2022-12-07T04:17:25;97.40;;;57.78;;
30888;SDS011;51092;50.874;7.024;2022-12-07T04:18:28;94.75;;;55.60;;
30888;SDS011;51092;50.874;7.024;2022-12-07T04:19:30;107.97;;;60.40;;
30888;SDS011;51092;50.874;7.024;2022-12-07T04:20:34;88.40;;;55.35;;
30888;SDS011;51092;50.874;7.024;2022-12-07T04:21:36;89.78;;;52.70;;
30888;SDS011;51092;50.874;7.024;2022-12-07T04:22:38;102.20;;;57.90;;
30888;SDS011;51092;50.874;7.024;2022-12-07T04:23:40;92.72;;;55.40;;
30888;SDS011;51092;50.874;7.024;2022-12-07T04:24:42;95.40;;;56.97;;
30888;SDS011;51092;50.874;7.024;2022-12-07T04:25:44;83.00;;;51.65;;
30888;SDS011;51092;50.874;7.024;2022-12-07T04:26:49;92.05;;;57.70;;
30888;SDS011;51092;50.874;7.024;2022-12-07T04:27:51;108.88;;;60.20;;
30888;SDS011;51092;50.874;7.024;2022-12-07T04:28:54;90.38;;;56.13;;
30888;SDS011;51092;50.874;7.024;2022-12-07T04:29:56;83.03;;;52.13;;
30888;SDS011;51092;50.874;7.024;2022-12-07T04:30:58;103.80;;;59.38;;
30888;SDS011;51092;50.874;7.024;2022-12-07T04:31:59;128.30;;;63.50;;
30888;SDS011;51092;50.874;7.024;2022-12-07T04:33:03;106.15;;;59.20;;
30888;SDS011;51092;50.874;7.024;2022-12-07T04:34:05;97.47;;;56.17;;
30888;SDS011;51092;50.874;7.024;2022-12-07T04:35:08;92.97;;;55.00;;
30888;SDS011;51092;50.874;7.024;2022-12-07T04:36:10;86.38;;;53.53;;
30888;SDS011;51092;50.874;7.024;2022-12-07T04:37:12;86.57;;;52.92;;
30888;SDS011;51092;50.874;7.024;2022-12-07T04:38:15;91.63;;;55.95;;
30888;SDS011;51092;50.874;7.024;2022-12-07T04:39:18;96.60;;;55.83;;
30888;SDS011;51092;50.874;7.024;2022-12-07T04:40:23;115.53;;;62.75;;
30888;SDS011;51092;50.874;7.024;2022-12-07T04:41:24;103.80;;;59.85;;
30888;SDS011;51092;50.874;7.024;2022-12-07T04:42:28;94.95;;;56.20;;
30888;SDS011;51092;50.874;7.024;2022-12-07T04:43:30;87.05;;;50.00;;
30888;SDS011;51092;50.874;7.024;2022-12-07T04:44:32;121.05;;;63.38;;
30888;SDS011;51092;50.874;7.024;2022-12-07T04:45:34;128.32;;;62.75;;
30888;SDS011;51092;50.874;7.024;2022-12-07T04:46:36;106.97;;;59.40;;
30888;SDS011;51092;50.874;7.024;2022-12-07T04:47:38;104.05;;;59.78;;
30888;SDS011;51092;50.874;7.024;2022-12-07T04:48:42;94.38;;;55.30;;
30888;SDS011;51092;50.874;7.024;2022-12-07T04:49:43;98.25;;;56.08;;
30888;SDS011;51092;50.874;7.024;2022-12-07T04:50:47;85.70;;;50.08;;
30888;SDS011;51092;50.874;7.024;2022-12-07T04:51:50;112.43;;;61.45;;
30888;SDS011;51092;50.874;7.024;2022-12-07T04:52:52;89.80;;;55.70;;
30888;SDS011;51092;50.874;7.024;2022-12-07T04:53:55;112.00;;;60.13;;
30888;SDS011;51092;50.874;7.024;2022-12-07T04:54:57;126.15;;;60.00;;
30888;SDS011;51092;50.874;7.024;2022-12-07T04:55:59;82.90;;;49.85;;
30888;SDS011;51092;50.874;7.024;2022-12-07T04:57:02;115.28;;;61.13;;
30888;SDS011;51092;50.874;7.024;2022-12-07T04:58:04;95.60;;;59.35;;
30888;SDS011;51092;50.874;7.024;2022-12-07T04:59:06;90.97;;;54.90;;
30888;SDS011;51092;50.874;7.024;2022-12-07T05:00:08;94.25;;;59.05;;
30888;SDS011;51092;50.874;7.024;2022-12-07T05:01:12;107.40;;;61.47;;
30888;SDS011;51092;50.874;7.024;2022-12-07T05:02:13;104.03;;;59.25;;
30888;SDS011;51092;50.874;7.024;2022-12-07T05:03:15;97.03;;;56.92;;
30888;SDS011;51092;50.874;7.024;2022-12-07T05:04:18;106.70;;;61.75;;
30888;SDS011;51092;50.874;7.024;2022-12-07T05:05:19;107.50;;;61.40;;
30888;SDS011;51092;50.874;7.024;2022-12-07T05:06:21;105.18;;;63.15;;
30888;SDS011;51092;50.874;7.024;2022-12-07T05:07:24;103.30;;;60.67;;
30888;SDS011;51092;50.874;7.024;2022-12-07T05:08:25;103.30;;;61.65;;
30888;SDS011;51092;50.874;7.024;2022-12-07T05:09:28;112.45;;;64.10;;
30888;SDS011;51092;50.874;7.024;2022-12-07T05:10:29;105.30;;;62.38;;
30888;SDS011;51092;50.874;7.024;2022-12-07T05:11:32;115.07;;;64.03;;
30888;SDS011;51092;50.874;7.024;2022-12-07T05:12:38;115.43;;;65.05;;
30888;SDS011;51092;50.874;7.024;2022-12-07T05:13:40;103.63;;;62.97;;
30888;SDS011;51092;50.874;7.024;2022-12-07T05:14:41;108.93;;;64.35;;
30888;SDS011;51092;50.874;7.024;2022-12-07T05:15:43;111.85;;;62.75;;
30888;SDS011;51092;50.874;7.024;2022-12-07T05:16:45;117.90;;;62.08;;
30888;SDS011;51092;50.874;7.024;2022-12-07T05:17:49;125.90;;;62.40;;
30888;SDS011;51092;50.874;7.024;2022-12-07T05:18:53;112.75;;;62.33;;
30888;SDS011;51092;50.874;7.024;2022-12-07T05:19:56;133.75;;;65.65;;
30888;SDS011;51092;50.874;7.024;2022-12-07T05:20:59;110.55;;;63.42;;
30888;SDS011;51092;50.874;7.024;2022-12-07T05:22:00;118.93;;;66.18;;
30888;SDS011;51092;50.874;7.024;2022-12-07T05:23:03;125.03;;;65.32;;
30888;SDS011;51092;50.874;7.024;2022-12-07T05:24:05;134.32;;;66.38;;
30888;SDS011;51092;50.874;7.024;2022-12-07T05:25:08;116.57;;;63.15;;
30888;SDS011;51092;50.874;7.024;2022-12-07T05:26:10;120.47;;;65.38;;
30888;SDS011;51092;50.874;7.024;2022-12-07T05:27:12;143.10;;;69.07;;
30888;SDS011;51092;50.874;7.024;2022-12-07T05:28:14;100.85;;;62.35;;
30888;SDS011;51092;50.874;7.024;2022-12-07T05:29:17;138.40;;;65.75;;
30888;SDS011;51092;50.874;7.024;2022-12-07T05:30:18;116.20;;;65.80;;
30888;SDS011;51092;50.874;7.024;2022-12-07T05:31:21;99.05;;;61.47;;
30888;SDS011;51092;50.874;7.024;2022-12-07T05:32:23;122.68;;;61.83;;
30888;SDS011;51092;50.874;7.024;2022-12-07T05:33:25;128.80;;;67.00;;
30888;SDS011;51092;50.874;7.024;2022-12-07T05:34:27;117.93;;;63.45;;
30888;SDS011;51092;50.874;7.024;2022-12-07T05:35:30;119.38;;;63.28;;
30888;SDS011;51092;50.874;7.024;2022-12-07T05:36:32;126.63;;;64.78;;
30888;SDS011;51092;50.874;7.024;2022-12-07T05:37:34;105.75;;;61.05;;
30888;SDS011;51092;50.874;7.024;2022-12-07T05:38:36;100.50;;;60.65;;
30888;SDS011;51092;50.874;7.024;2022-12-07T05:39:38;94.60;;;55.83;;
30888;SDS011;51092;50.874;7.024;2022-12-07T05:40:41;82.15;;;52.20;;
30888;SDS011;51092;50.874;7.024;2022-12-07T05:41:44;77.10;;;50.83;;
30888;SDS011;51092;50.874;7.024;2022-12-07T05:43:04;99.45;;;57.35;;
30888;SDS011;51092;50.874;7.024;2022-12-07T05:44:06;104.18;;;57.80;;
30888;SDS011;51092;50.874;7.024;2022-12-07T05:45:08;123.40;;;63.45;;
30888;SDS011;51092;50.874;7.024;2022-12-07T05:46:12;85.07;;;51.25;;
30888;SDS011;51092;50.874;7.024;2022-12-07T05:47:13;91.95;;;53.05;;
30888;SDS011;51092;50.874;7.024;2022-12-07T05:48:17;96.38;;;57.45;;
30888;SDS011;51092;50.874;7.024;2022-12-07T05:49:18;99.60;;;56.83;;
30888;SDS011;51092;50.874;7.024;2022-12-07T05:50:22;78.07;;;49.42;;
30888;SDS011;51092;50.874;7.024;2022-12-07T05:51:25;112.03;;;60.92;;
30888;SDS011;51092;50.874;7.024;2022-12-07T05:52:28;112.07;;;60.45;;
30888;SDS011;51092;50.874;7.024;2022-12-07T05:53:30;120.15;;;61.08;;
30888;SDS011;51092;50.874;7.024;2022-12-07T05:54:32;107.47;;;61.95;;
30888;SDS011;51092;50.874;7.024;2022-12-07T05:55:35;99.85;;;58.13;;
30888;SDS011;51092;50.874;7.024;2022-12-07T05:56:37;98.70;;;55.22;;
30888;SDS011;51092;50.874;7.024;2022-12-07T05:57:39;113.57;;;63.40;;
30888;SDS011;51092;50.874;7.024;2022-12-07T05:59:01;95.25;;;56.30;;
30888;SDS011;51092;50.874;7.024;2022-12-07T06:00:21;98.07;;;54.10;;
30888;SDS011;51092;50.874;7.024;2022-12-07T06:01:23;93.25;;;57.28;;
30888;SDS011;51092;50.874;7.024;2022-12-07T06:02:25;79.50;;;47.63;;
30888;SDS011;51092;50.874;7.024;2022-12-07T06:03:27;69.85;;;43.60;;
30888;SDS011;51092;50.874;7.024;2022-12-07T06:04:30;80.78;;;46.40;;
30888;SDS011;51092;50.874;7.024;2022-12-07T06:05:34;92.93;;;53.03;;
30888;SDS011;51092;50.874;7.024;2022-12-07T06:06:37;109.13;;;58.88;;
30888;SDS011;51092;50.874;7.024;2022-12-07T06:07:39;91.40;;;52.13;;
30888;SDS011;51092;50.874;7.024;2022-12-07T06:08:42;102.30;;;54.90;;
30888;SDS011;51092;50.874;7.024;2022-12-07T06:09:43;103.43;;;58.28;;
30888;SDS011;51092;50.874;7.024;2022-12-07T06:10:46;100.72;;;53.58;;
30888;SDS011;51092;50.874;7.024;2022-12-07T06:12:11;84.65;;;51.58;;
30888;SDS011;51092;50.874;7.024;2022-12-07T06:13:30;80.97;;;47.95;;
30888;SDS011;51092;50.874;7.024;2022-12-07T06:14:32;98.65;;;50.53;;
30888;SDS011;51092;50.874;7.024;2022-12-07T06:15:36;90.47;;;48.70;;
30888;SDS011;51092;50.874;7.024;2022-12-07T06:16:38;87.70;;;48.35;;
30888;SDS011;51092;50.874;7.024;2022-12-07T06:17:45;94.18;;;50.58;;